Sand Spring Valley, Nevada Weather observations

Data are for 10 minute period ending at time listed.
 Day   Time   Solar   Ave.   Ave.  Ave.  Vector  Max.   Baro.   Total    
  of    of     Rad.   Air    Rel.  Wind   Wind   Wind  Press.  Precip.   
Year   Day            Temp.  Hum.  Speed  Dir.   Gust                    
2014   (PST)  Kw/m2    F      %     mph   deg.    mph    mb.     in.     
-------------------------------------------------------------------------
 108    1:00   0.00   58.0    34   12.4   225    15.1   847.5    0.00 
 108    1:10   0.00   58.0    32   12.9   229    15.7   847.4    0.00 
 108    1:20   0.00   58.0    32   11.2   231    15.4   847.5    0.00 
 108    1:30   0.00   58.0    33    8.0   232    10.6   847.4    0.00 
 108    1:40   0.00   58.2    32    7.8   238    11.2   847.5    0.00 
 108    1:50   0.00   58.7    32    8.9   217    12.6   847.6    0.00 
 108    2:00   0.00   58.8    32    9.8   211    14.6   847.6    0.00 
 108    2:10   0.00   58.9    32   10.1   218    14.5   847.5    0.00 
 108    2:20   0.00   58.7    33   10.3   218    17.0   847.5    0.00 
 108    2:30   0.00   59.0    32    8.9   216    15.0   847.6    0.00 
 108    2:40   0.00   59.0    33    8.2   215    15.5   847.6    0.00 
 108    2:50   0.00   58.5    34    7.2   229    12.6   847.6    0.00 
 108    3:00   0.00   58.7    32    3.9   226     8.3   847.5    0.00 
 108    3:10   0.00   57.7    35    3.6    94     5.2   847.5    0.00 
 108    3:20   0.00   58.0    32    3.2   111     5.5   847.4    0.00 
 108    3:30   0.00   60.0    28    1.7    85     4.3   847.4    0.00 
 108    3:40   0.00   60.8    27    1.3   322     3.9   847.4    0.00 
 108    3:50   0.00   60.8    28    4.5   245     9.3   847.5    0.00 
 108    4:00   0.00   61.3    28    5.9   219    12.6   847.4    0.00 
 108    4:10   0.00   61.6    28    5.5   185     9.3   847.5    0.00 
 108    4:20   0.00   58.2    32    4.0   122     7.0   847.6    0.00 
 108    4:30   0.00   56.4    33    5.1   145     8.4   847.7    0.00 
 108    4:40   0.00   55.5    35    3.2    99     5.6   847.8    0.00 
 108    4:50   0.00   55.3    34    3.6    37     7.1   847.8    0.00 
 108    5:00   0.00   56.7    31    1.8   123     3.9   847.8    0.00 
 108    5:10   0.00   55.1    37    3.7   101     8.0   847.8    0.00 
 108    5:20   0.01   56.5    32    6.7   143    12.5   847.8    0.00 
 108    5:30   0.02   56.9    33    5.0   154     6.9   847.8    0.00 
 108    5:40   0.03   54.7    36    3.7   186     5.7   848.0    0.00 
 108    5:50   0.04   53.8    37    2.3    18     5.2   848.1    0.00 
 108    6:00   0.06   53.8    36    0.7    12     2.7   848.2    0.00 
 108    6:10   0.15   54.6    36    0.4    12     1.3   848.4    0.00 
 108    6:20   0.21   56.2    49    1.7    75     3.7   848.5    0.00 
 108    6:30   0.20   55.8    43    3.1    67     5.0   848.5    0.00 
 108    6:40   0.15   55.7    50    1.8    74     4.3   848.6    0.00 
 108    6:50   0.19   54.9    53    3.4    93     5.3   848.7    0.00 
 108    7:00   0.21   55.8    51    1.0   112     3.9   848.8    0.00 
 108    7:10   0.19   57.0    45    2.7   159     3.7   848.7    0.00 
 108    7:20   0.16   56.2    56    0.4   150     3.1   848.7    0.00 
 108    7:30   0.18   56.0    56    1.3    99     2.5   848.7    0.00 
 108    7:40   0.23   57.6    50    1.9   100     2.9   848.6    0.00 
 108    7:50   0.29   58.3    49    1.6   103     2.9   848.6    0.00 
 108    8:00   0.41   60.7    34    1.7    40     4.2   848.6    0.00 
 108    8:10   0.52   62.4    28    3.0    37     5.3   848.7    0.00 
 108    8:20   0.64   64.4    24    1.9    40     4.8   848.9    0.00 
 108    8:30   0.58   65.6    23    2.6   351     5.9   849.0    0.00 
 108    8:40   0.54   64.8    25    4.6   333     6.7   849.1    0.00 
 108    8:50   0.44   65.1    24    4.6   332     6.6   849.2    0.00 
 108    9:00   0.43   65.2    24    4.1   310     5.3   849.3    0.00 
 108    9:10   0.45   65.7    24    3.7   310     5.3   849.3    0.00 
 108    9:20   0.64   66.9    22    3.1   310     5.7   849.3    0.00 
 108    9:30   0.67   69.2    19    1.1     5     3.3   849.3    0.00 
 108    9:40   0.74   70.3    20    2.3    88     6.9   849.3    0.00 
 108    9:50   0.78   70.0    20    3.4    73    10.4   849.3    0.00 
 108   10:00   0.73   68.8    25    9.9   137    16.9   849.3    0.00 
 108   10:10   0.86   68.6    24   11.7   146    17.6   849.3    0.00 
 108   10:20   0.81   68.8    23   12.1   144    17.3   849.4    0.00 
 108   10:30   0.77   68.4    23   12.8   142    20.2   849.3    0.00 
 108   10:40   0.76   68.5    22   11.4   142    16.1   849.3    0.00 
 108   10:50   0.81   68.9    22   11.7   149    19.1   849.4    0.00 
 108   11:00   0.89   70.6    18   11.1   157    16.4   849.3    0.00 
 108   11:10   0.83   70.0    18   12.2   176    20.8   849.3    0.00 
 108   11:20   0.89   71.1    18    9.9   165    20.0   849.2    0.00 
 108   11:30   0.75   71.0    15   13.8   199    18.7   849.1    0.00 
 108   11:40   0.79   70.9    14   11.3   193    17.7   849.1    0.00 
 108   11:50   0.80   71.3    15   11.1   201    18.5   849.1    0.00 
 108   12:00   0.64   71.3    15   11.8   183    18.3   849.1    0.00 
 108   12:10   0.61   71.4    14   10.4   194    17.9   849.1    0.00 
 108   12:20   0.54   70.9    14   11.4   205    17.9   849.0    0.00 
 108   12:30   0.52   70.2    14   13.8   204    19.4   849.0    0.00 
 108   12:40   0.50   70.5    15   14.2   207    19.6   848.9    0.00 
 108   12:50   0.50   70.5    14   11.6   206    18.3   848.9    0.00 
 108   13:00   0.51   70.8    14   13.5   196    20.4   848.9    0.00 
 108   13:10   0.58   71.0    13   12.4   185    17.8   848.9    0.00 
 108   13:20   0.61   71.2    14   11.4   201    16.9   848.8    0.00 
 108   13:30   0.58   71.5    13   11.2   185    18.8   848.7    0.00 
 108   13:40   0.54   71.0    14   11.4   208    18.1   848.6    0.00 
 108   13:50   0.51   70.8    15   13.4   197    19.6   848.5    0.00 
 108   14:00   0.46   70.9    15   14.2   201    20.4   848.4    0.00 
 108   14:10   0.43   70.6    15   14.0   192    21.1   848.3    0.00 
 108   14:20   0.45   70.2    16   15.1   201    21.5   848.2    0.00 
 108   14:30   0.48   70.3    16   13.7   198    19.3   848.1    0.00 
 108   14:40   0.56   71.1    15   13.2   188    21.1   848.0    0.00 
 108   14:50   100.00  99999.0   99999  99999.0   99999   99999.0   99999.0   99999.00 
 108   15:00   0.57   71.3    16    9.6   179    19.8   847.9    0.00 
 108   15:10   0.62   72.3    15    8.4   191    17.5   847.8    0.00 
 108   15:20   0.60   72.4    16   12.7   184    23.2   847.6    0.00 
 108   15:30   0.55   71.6    17   11.1   170    16.8   847.5    0.00 
 108   15:40   0.52   71.4    18   10.3   157    18.3   847.5    0.00 
 108   15:50   0.47   70.9    17   12.0   186    19.2   847.4    0.00 
 108   16:00   0.43   70.5    19   11.2   166    17.3   847.4    0.00 
 108   16:10   0.41   71.5    16   12.3   181    19.1   847.4    0.00 
 108   16:20   0.37   71.9    14   13.5   189    18.5   847.5    0.00 
 108   16:30   0.35   71.5    15   13.8   198    20.6   847.5    0.00 
 108   16:40   0.28   71.0    15   14.6   193    19.1   847.6    0.00 
 108   16:50   0.25   70.9    16   13.8   193    23.2   847.6    0.00 
 108   17:00   0.09   69.3    19   14.4   198    17.9   847.6    0.00 
 108   17:10   0.09   67.7    22   13.3   209    18.3   847.6    0.00 
 108   17:20   0.06   67.1    23   13.8   205    18.6   847.6    0.00 
 108   17:30   0.05   66.1    25   13.9   209    19.7   847.7    0.00 
 108   17:40   0.04   64.8    28   14.2   210    20.6   848.0    0.00 
 108   17:50   0.03   64.6    28   13.9   211    17.6   848.1    0.00 
 108   18:00   0.02   63.6    30   11.5   213    15.1   848.1    0.00 
 108   18:10   0.01   63.0    30   11.2   217    14.0   848.1    0.00 
 108   18:20   0.01   62.9    29   11.4   218    14.8   848.3    0.00 
 108   18:30   0.00   62.3    30   10.4   215    12.6   848.3    0.00 
 108   18:40   0.00   61.2    31    9.7   211    12.3   848.5    0.00 
 108   18:50   0.00   60.0    33    8.9   219    10.7   848.7    0.00 
 108   19:00   0.00   60.5    30    7.9   250    11.4   848.8    0.00 
 108   19:10   0.00   61.5    33    8.7   263    12.3   849.0    0.00 
 108   19:20   0.00   60.4    36    9.0   265    11.4   849.2    0.00 
 108   19:30   0.00   60.0    37    8.7   267    11.8   849.4    0.00 
 108   19:40   0.00   59.8    37    4.3   245     6.8   849.6    0.00 
 108   19:50   0.00   58.2    43    6.6   220    14.8   849.9    0.00 
 108   20:00   0.00   60.1    37    4.8   241     8.3   850.0    0.00 
 108   20:10   0.00   58.9    39    4.5   218     7.2   850.2    0.00 
 108   20:20   0.00   59.4    37    1.0   209     1.9   850.2    0.00 
 108   20:30   0.00   58.3    42    1.2   209     2.2   850.2    0.00 
 108   20:40   0.00   56.3    46    1.4   210     2.8   850.2    0.00 
 108   20:50   0.00   56.7    37    4.7   238     8.8   850.2    0.00 
 108   21:00   0.00   59.6    28    6.6   254    12.0   850.1    0.00 
 108   21:10   0.00   59.6    28    7.6   245    10.4   850.2    0.00 
 108   21:20   0.00   58.7    30   10.6   254    15.3   850.4    0.00 
 108   21:30   0.00   58.0    34    6.9   237    10.0   850.4    0.00 
 108   21:40   0.00   56.5    38    5.8   233     9.3   850.3    0.00 
 108   21:50   0.00   55.9    43    4.4   222     5.4   850.2    0.00 
 108   22:00   0.00   55.5    46    2.8   225     3.8   850.1    0.00 
 108   22:10   0.00   55.1    50    1.6   230     3.6   850.0    0.00 
 108   22:20   0.00   53.0    50    2.0   124     4.2   849.9    0.00 
 108   22:30   0.00   53.4    48    0.4    91     1.5   849.9    0.00 
 108   22:40   0.00   54.0    48    0.8    91     3.2   849.9    0.00 
 108   22:50   0.00   53.6    46    0.3    94     1.4   849.8    0.00 
 108   23:00   0.00   54.0    46    0.3    92     1.6   849.8    0.00 
 108   23:10   0.00   54.0    46    0.0     0     0.0   849.9    0.00 
 108   23:20   0.00   55.1    42    0.0     0     0.0   849.8    0.00 
 108   23:30   0.00   55.0    44    2.7    10     4.1   849.8    0.00 
 108   23:40   0.00   53.9    52    3.6   342     4.8   849.8    0.00 
 108   23:50   0.00   51.7    59    4.0   317     4.9   849.8    0.00 
 109    0:00   0.00   51.0    57    3.3   315     4.2   849.8    0.00 
 109    0:10   0.00   49.7    62    1.3    12     3.1   849.8    0.00 
 109    0:20   0.00   48.9    62    0.2    39     2.3   849.8    0.00 
 109    0:30   0.00   49.5    58    0.8    81     2.6   849.8    0.00 
 109    0:40   0.00   49.3    60    3.6   121     4.7   849.9    0.00 
 109    0:50   0.00   46.7    63    2.9   113     3.6   849.9    0.00 

Return to Sand Spring Valley graphs page.


Western Regional Climate Center,wrcc@dri.edu